createdAt,value
2023-03-28T00:00:35.834Z,28.13
2023-03-28T00:01:35.826Z,29.31
2023-03-28T00:02:35.850Z,28.08
2023-03-28T00:03:36.066Z,27.17
2023-03-28T00:04:35.855Z,30.26
2023-03-28T00:05:35.875Z,30.95
2023-03-28T00:06:35.889Z,29.54
2023-03-28T00:07:35.891Z,28.98
2023-03-28T00:08:35.881Z,25.88
2023-03-28T00:09:35.886Z,31.26
2023-03-28T00:10:35.898Z,25.50
2023-03-28T00:11:35.911Z,27.63
2023-03-28T00:12:35.922Z,32.86
2023-03-28T00:13:35.938Z,33.55
2023-03-28T00:14:36.008Z,25.53
2023-03-28T00:15:35.989Z,30.40
2023-03-28T00:16:35.959Z,30.81
2023-03-28T00:17:36.029Z,29.70
2023-03-28T00:18:35.960Z,29.88
2023-03-28T00:19:35.966Z,28.14
2023-03-28T00:20:35.966Z,29.24
2023-03-28T00:21:35.983Z,29.18
2023-03-28T00:22:35.974Z,28.07
2023-03-28T00:23:35.997Z,27.07
2023-03-28T00:24:35.993Z,31.20
2023-03-28T00:25:36.011Z,30.76
2023-03-28T00:26:36.186Z,27.45
2023-03-28T00:27:36.023Z,26.26
2023-03-28T00:28:36.012Z,32.75
2023-03-28T00:29:36.025Z,28.79
2023-03-28T00:30:36.050Z,31.87
2023-03-28T00:31:36.068Z,28.57
2023-03-28T00:32:36.066Z,30.04
2023-03-28T00:33:36.080Z,29.94
2023-03-28T00:34:36.068Z,31.00
2023-03-28T00:35:36.079Z,29.35
2023-03-28T00:36:36.066Z,30.26
2023-03-28T00:37:36.077Z,26.94
2023-03-28T00:38:36.076Z,30.46
2023-03-28T00:39:36.091Z,27.86
2023-03-28T00:40:36.098Z,29.22
2023-03-28T00:41:36.109Z,27.76
2023-03-28T00:42:36.113Z,28.40
2023-03-28T00:43:36.134Z,27.54
2023-03-28T00:44:36.140Z,31.22
2023-03-28T00:45:36.149Z,31.30
2023-03-28T00:46:36.260Z,31.67
2023-03-28T00:47:36.167Z,27.66
2023-03-28T00:48:36.175Z,27.38
2023-03-28T00:49:36.171Z,31.14
2023-03-28T00:50:36.249Z,28.28
2023-03-28T00:51:36.254Z,26.44
2023-03-28T00:52:36.190Z,28.01
2023-03-28T00:53:36.201Z,26.78
2023-03-28T00:54:36.193Z,26.91
2023-03-28T00:55:36.197Z,29.90
2023-03-28T00:56:36.246Z,30.02
2023-03-28T00:57:36.296Z,30.32
2023-03-28T00:58:36.203Z,27.38
2023-03-28T00:59:36.269Z,30.52
2023-03-28T01:00:36.201Z,27.67
2023-03-28T01:01:36.275Z,27.58
2023-03-28T01:02:36.842Z,28.52
2023-03-28T01:03:36.308Z,30.24
2023-03-28T01:04:36.215Z,28.78
2023-03-28T01:05:36.224Z,27.37
2023-03-28T01:06:36.222Z,30.68
2023-03-28T01:07:36.221Z,25.79
2023-03-28T01:08:36.225Z,27.52
2023-03-28T01:09:36.768Z,28.89
2023-03-28T01:10:36.230Z,28.86
2023-03-28T01:11:36.238Z,28.86
2023-03-28T01:12:36.227Z,28.54
2023-03-28T01:13:36.241Z,25.00
2023-03-28T01:14:36.234Z,30.34
2023-03-28T01:15:36.247Z,28.84
2023-03-28T01:16:36.302Z,27.13
2023-03-28T01:17:36.261Z,26.47
2023-03-28T01:18:36.322Z,29.73
2023-03-28T01:19:36.257Z,31.35
2023-03-28T01:20:36.263Z,28.18
2023-03-28T01:21:36.260Z,30.50
2023-03-28T01:22:36.249Z,26.89
2023-03-28T01:23:36.247Z,28.15
2023-03-28T01:24:36.252Z,30.65
2023-03-28T01:25:36.245Z,32.64
2023-03-28T01:26:36.776Z,25.70
2023-03-28T01:27:36.246Z,30.81
2023-03-28T01:28:36.254Z,30.33
2023-03-28T01:29:36.227Z,28.82
2023-03-28T01:30:36.226Z,30.69
2023-03-28T01:31:36.338Z,30.42
2023-03-28T01:32:36.245Z,30.75
2023-03-28T01:33:36.215Z,31.29
2023-03-28T01:34:36.223Z,25.59
2023-03-28T01:35:36.307Z,27.48
2023-03-28T01:36:36.224Z,30.83
2023-03-28T01:37:36.213Z,29.89
2023-03-28T01:38:36.214Z,31.68
2023-03-28T01:39:36.220Z,26.52
2023-03-28T01:40:36.229Z,32.16
2023-03-28T01:41:36.220Z,33.87
2023-03-28T01:42:36.228Z,34.50
2023-03-28T01:43:36.232Z,27.16
2023-03-28T01:44:36.230Z,28.46
2023-03-28T01:45:36.268Z,31.28
2023-03-28T01:46:36.248Z,30.95
2023-03-28T01:47:36.312Z,28.64
2023-03-28T01:48:36.250Z,26.56
2023-03-28T01:49:36.327Z,35.06
2023-03-28T01:50:36.253Z,33.32
2023-03-28T01:51:36.258Z,32.10
2023-03-28T01:52:36.258Z,31.11
2023-03-28T01:53:36.263Z,28.95
2023-03-28T01:54:36.269Z,25.00
2023-03-28T01:55:41.740Z,30.76
2023-03-28T01:56:37.353Z,31.04
2023-03-28T01:57:36.308Z,31.73
2023-03-28T01:58:36.770Z,32.84
2023-03-28T01:59:36.288Z,32.58
2023-03-28T02:00:36.292Z,33.30
2023-03-28T02:01:36.301Z,31.45
2023-03-28T02:02:36.395Z,29.87
2023-03-28T02:03:36.402Z,32.13
2023-03-28T02:04:36.319Z,30.62
2023-03-28T02:05:36.303Z,34.34
2023-03-28T02:06:36.296Z,32.81
2023-03-28T02:07:36.308Z,33.13
2023-03-28T02:08:36.303Z,30.81
2023-03-28T02:09:36.783Z,26.82
2023-03-28T02:10:37.281Z,32.36
2023-03-28T02:11:36.320Z,29.08
2023-03-28T02:12:36.337Z,27.37
2023-03-28T02:13:36.353Z,34.42
2023-03-28T02:14:36.349Z,31.73
2023-03-28T02:15:36.346Z,27.38
2023-03-28T02:16:36.348Z,26.25
2023-03-28T02:17:36.381Z,30.88
2023-03-28T02:18:36.360Z,28.40
2023-03-28T02:19:36.348Z,32.14
2023-03-28T02:20:36.361Z,29.15
2023-03-28T02:21:36.360Z,29.47
2023-03-28T02:22:36.363Z,29.32
2023-03-28T02:23:36.369Z,33.85
2023-03-28T02:24:36.374Z,28.07
2023-03-28T02:25:36.376Z,27.62
2023-03-28T02:26:36.379Z,34.06
2023-03-28T02:27:36.378Z,30.18
2023-03-28T02:28:36.385Z,28.23
2023-03-28T02:29:36.389Z,26.26
2023-03-28T02:30:36.397Z,27.28
2023-03-28T02:31:36.483Z,30.21
2023-03-28T02:32:36.416Z,29.33
2023-03-28T02:33:36.401Z,29.38
2023-03-28T02:34:36.401Z,29.84
2023-03-28T02:35:36.442Z,30.82
2023-03-28T02:36:36.410Z,26.02
2023-03-28T02:37:36.412Z,29.88
2023-03-28T02:38:36.420Z,29.87
2023-03-28T02:39:36.433Z,31.77
2023-03-28T02:40:36.444Z,27.78
2023-03-28T02:41:36.439Z,27.91
2023-03-28T02:42:36.442Z,27.03
2023-03-28T02:43:36.448Z,30.30
2023-03-28T02:44:36.458Z,32.29
2023-03-28T02:45:36.469Z,25.00
2023-03-28T02:46:36.541Z,32.62
2023-03-28T02:47:36.512Z,28.75
2023-03-28T02:48:36.502Z,32.01
2023-03-28T02:49:47.683Z,33.21
2023-03-28T02:50:37.516Z,33.25
2023-03-28T02:51:36.512Z,31.61
2023-03-28T02:52:36.521Z,30.82
2023-03-28T02:53:36.527Z,33.46
2023-03-28T02:54:36.530Z,29.29
2023-03-28T02:55:36.546Z,27.78
2023-03-28T02:56:37.347Z,29.70
2023-03-28T02:57:36.634Z,29.06
2023-03-28T02:58:36.548Z,26.26
2023-03-28T02:59:36.553Z,28.00
2023-03-28T03:00:36.562Z,27.29
2023-03-28T03:01:36.650Z,31.99
2023-03-28T03:02:36.590Z,31.35
2023-03-28T03:03:36.700Z,30.92
2023-03-28T03:04:36.572Z,29.99
2023-03-28T03:05:36.575Z,26.72
2023-03-28T03:06:36.581Z,27.97
2023-03-28T03:07:36.578Z,26.70
2023-03-28T03:08:36.651Z,30.03
2023-03-28T03:09:36.599Z,26.41
2023-03-28T03:10:36.580Z,28.19
2023-03-28T03:11:36.599Z,27.97
2023-03-28T03:12:36.625Z,30.50
2023-03-28T03:13:36.598Z,25.40
2023-03-28T03:14:36.609Z,27.90
2023-03-28T03:15:36.614Z,28.21
2023-03-28T03:16:36.680Z,29.22
2023-03-28T03:17:36.671Z,32.53
2023-03-28T03:18:36.635Z,30.62
2023-03-28T03:19:36.631Z,27.27
2023-03-28T03:20:36.643Z,27.14
2023-03-28T03:21:36.640Z,26.89
2023-03-28T03:22:36.636Z,28.46
2023-03-28T03:23:37.319Z,26.29
2023-03-28T03:24:36.711Z,27.10
2023-03-28T03:25:36.637Z,28.25
2023-03-28T03:26:36.829Z,27.44
2023-03-28T03:27:36.640Z,27.76
2023-03-28T03:28:36.633Z,26.51
2023-03-28T03:29:38.792Z,26.91
2023-03-28T03:30:36.628Z,27.19
2023-03-28T03:31:36.672Z,24.05
2023-03-28T03:32:36.700Z,29.07
2023-03-28T03:33:36.628Z,29.84
2023-03-28T03:34:36.624Z,30.79
2023-03-28T03:35:36.684Z,32.10
2023-03-28T03:36:36.620Z,26.93
2023-03-28T03:37:36.618Z,30.90
2023-03-28T03:38:36.622Z,27.79
2023-03-28T03:39:36.626Z,29.98
2023-03-28T03:40:36.621Z,30.95
2023-03-28T03:41:36.688Z,27.37
2023-03-28T03:42:36.613Z,26.90
2023-03-28T03:43:36.608Z,26.83
2023-03-28T03:44:36.601Z,27.32
2023-03-28T03:45:36.610Z,29.80
2023-03-28T03:46:36.694Z,26.59
2023-03-28T03:47:36.703Z,28.71
2023-03-28T03:48:36.593Z,28.21
2023-03-28T03:49:36.582Z,28.76
2023-03-28T03:50:36.580Z,27.45
2023-03-28T03:51:36.596Z,25.00
2023-03-28T03:52:36.574Z,26.20
2023-03-28T03:53:36.589Z,26.64
2023-03-28T03:54:38.049Z,28.54
2023-03-28T03:55:36.569Z,30.00
2023-03-28T03:56:36.681Z,30.38
2023-03-28T03:57:36.578Z,29.32
2023-03-28T03:58:36.573Z,27.48
2023-03-28T03:59:36.570Z,27.82
2023-03-28T04:00:36.562Z,26.88
2023-03-28T04:01:36.557Z,27.89
2023-03-28T04:02:36.623Z,29.49
2023-03-28T04:03:36.593Z,27.04
2023-03-28T04:04:36.559Z,27.54
2023-03-28T04:05:36.553Z,27.18
2023-03-28T04:06:36.553Z,27.84
2023-03-28T04:07:36.563Z,29.24
2023-03-28T04:08:36.557Z,33.55
2023-03-28T04:09:36.561Z,29.58
2023-03-28T04:10:36.566Z,30.04
2023-03-28T04:11:36.558Z,26.36
2023-03-28T04:12:36.553Z,30.44
2023-03-28T04:13:36.565Z,28.79
2023-03-28T04:14:37.338Z,29.24
2023-03-28T04:15:36.590Z,27.46
2023-03-28T04:16:40.965Z,28.25
2023-03-28T04:17:37.611Z,28.46
2023-03-28T04:18:36.592Z,29.10
2023-03-28T04:19:36.598Z,29.26
2023-03-28T04:20:36.608Z,28.17
2023-03-28T04:21:36.612Z,28.03
2023-03-28T04:22:36.617Z,27.33
2023-03-28T04:23:37.632Z,27.55
2023-03-28T04:24:36.665Z,27.77
2023-03-28T04:25:36.634Z,27.08
2023-03-28T04:26:36.707Z,29.27
2023-03-28T04:27:36.648Z,27.98
2023-03-28T04:28:36.660Z,26.13
2023-03-28T04:29:36.659Z,27.88
2023-03-28T04:30:36.665Z,31.61
2023-03-28T04:31:37.367Z,30.07
2023-03-28T04:32:36.686Z,29.82
2023-03-28T04:33:37.348Z,29.31
2023-03-28T04:34:37.904Z,30.19
2023-03-28T04:35:36.857Z,25.98
2023-03-28T04:36:36.670Z,29.25
2023-03-28T04:37:36.685Z,31.81
2023-03-28T04:38:36.693Z,30.73
2023-03-28T04:39:36.691Z,26.93
2023-03-28T04:40:36.704Z,27.62
2023-03-28T04:41:37.407Z,28.65
2023-03-28T04:42:36.698Z,30.90
2023-03-28T04:43:36.773Z,31.04
2023-03-28T04:44:36.710Z,28.77
2023-03-28T04:45:36.736Z,29.97
2023-03-28T04:46:36.724Z,29.64
2023-03-28T04:47:36.784Z,28.39
2023-03-28T04:48:36.766Z,30.96
2023-03-28T04:49:36.761Z,33.03
2023-03-28T04:50:37.356Z,30.17
2023-03-28T04:51:36.786Z,30.67
2023-03-28T04:52:36.818Z,29.11
2023-03-28T04:53:36.840Z,29.07
2023-03-28T04:54:36.895Z,31.03
2023-03-28T04:55:36.854Z,30.04
2023-03-28T04:56:36.901Z,30.24
2023-03-28T04:57:36.893Z,28.42
2023-03-28T04:58:36.906Z,28.46
2023-03-28T04:59:36.924Z,28.21
2023-03-28T05:00:36.944Z,28.28
2023-03-28T05:01:36.972Z,27.76
2023-03-28T05:02:38.013Z,30.61
2023-03-28T05:03:36.994Z,29.98
2023-03-28T05:04:36.976Z,27.76
2023-03-28T05:05:36.999Z,28.17
2023-03-28T05:06:37.077Z,26.68
2023-03-28T05:07:37.021Z,30.79
2023-03-28T05:08:37.065Z,29.15
2023-03-28T05:09:37.030Z,26.65
2023-03-28T05:10:37.055Z,30.21
2023-03-28T05:11:37.070Z,30.72
2023-03-28T05:12:37.113Z,26.44
2023-03-28T05:13:37.109Z,27.98
2023-03-28T05:14:37.124Z,25.94
2023-03-28T05:15:37.132Z,28.52
2023-03-28T05:16:37.212Z,29.49
2023-03-28T05:17:37.221Z,27.46
2023-03-28T05:18:37.357Z,27.92
2023-03-28T05:19:37.210Z,29.49
2023-03-28T05:20:37.239Z,28.83
2023-03-28T05:21:37.357Z,30.77
2023-03-28T05:22:37.303Z,29.68
2023-03-28T05:23:37.250Z,31.23
2023-03-28T05:24:37.409Z,28.09
2023-03-28T05:25:37.311Z,32.81
2023-03-28T05:26:37.852Z,45.53
2023-03-28T05:27:37.327Z,25.82
2023-03-28T05:28:37.335Z,27.22
2023-03-28T05:29:37.357Z,42.26
2023-03-28T05:30:37.358Z,50.74
2023-03-28T05:31:37.467Z,62.11
2023-03-28T05:32:37.458Z,67.26
2023-03-28T05:33:37.470Z,92.82
2023-03-28T05:34:37.616Z,100.12
2023-03-28T05:35:37.642Z,110.41
2023-03-28T05:36:37.657Z,120.76
2023-03-28T05:37:39.165Z,130.18
2023-03-28T05:38:37.716Z,139.11
2023-03-28T05:39:37.712Z,146.13
2023-03-28T05:40:37.722Z,155.37
2023-03-28T05:41:37.710Z,159.44
2023-03-28T05:42:37.700Z,168.51
2023-03-28T05:43:37.714Z,178.62
2023-03-28T05:44:38.283Z,192.26
2023-03-28T05:45:37.747Z,198.04
2023-03-28T05:46:37.717Z,206.36
2023-03-28T05:47:37.700Z,216.42
2023-03-28T05:48:37.650Z,225.49
2023-03-28T05:49:37.634Z,235.69
2023-03-28T05:50:37.651Z,243.45
2023-03-28T05:51:37.621Z,250.00
2023-03-28T05:52:37.601Z,250.00
2023-03-28T05:53:37.620Z,248.49
2023-03-28T05:54:37.574Z,248.71
2023-03-28T05:55:37.563Z,249.25
2023-03-28T05:56:37.601Z,248.60
2023-03-28T05:57:37.588Z,248.69
2023-03-28T05:58:37.527Z,250.00
2023-03-28T05:59:37.507Z,247.25
2023-03-28T06:00:38.365Z,250.00
2023-03-28T06:01:37.492Z,249.21
2023-03-28T06:02:37.479Z,250.00
2023-03-28T06:03:37.456Z,248.92
2023-03-28T06:04:37.458Z,249.35
2023-03-28T06:05:37.418Z,250.00
2023-03-28T06:06:37.409Z,250.00
2023-03-28T06:07:42.595Z,249.33
2023-03-28T06:08:38.383Z,249.45
2023-03-28T06:09:37.343Z,250.62
2023-03-28T06:10:37.948Z,253.01
2023-03-28T06:11:37.299Z,258.60
2023-03-28T06:12:37.274Z,270.29
2023-03-28T06:13:37.265Z,253.11
2023-03-28T06:14:37.258Z,250.00
2023-03-28T06:15:37.242Z,250.00
2023-03-28T06:16:37.237Z,247.57
2023-03-28T06:17:37.259Z,249.44
2023-03-28T06:18:37.260Z,249.63
2023-03-28T06:19:37.912Z,249.31
2023-03-28T06:20:37.927Z,248.33
2023-03-28T06:21:37.160Z,249.59
2023-03-28T06:22:37.170Z,250.00
2023-03-28T06:23:37.129Z,249.11
2023-03-28T06:24:37.142Z,248.29
2023-03-28T06:25:37.061Z,247.53
2023-03-28T06:26:37.049Z,247.03
2023-03-28T06:27:37.038Z,245.93
2023-03-28T06:28:37.021Z,242.81
2023-03-28T06:29:38.114Z,244.08
2023-03-28T06:30:36.980Z,243.72
2023-03-28T06:31:37.006Z,242.22
2023-03-28T06:32:36.991Z,242.63
2023-03-28T06:33:36.921Z,242.20
2023-03-28T06:34:36.908Z,242.22
2023-03-28T06:35:36.941Z,241.72
2023-03-28T06:36:36.889Z,242.76
2023-03-28T06:37:36.892Z,244.03
2023-03-28T06:38:36.959Z,244.09
2023-03-28T06:39:36.848Z,244.19
2023-03-28T06:40:37.376Z,243.76
2023-03-28T06:41:36.829Z,243.72
2023-03-28T06:42:36.836Z,243.18
2023-03-28T06:43:36.807Z,242.49
2023-03-28T06:44:36.863Z,241.44
2023-03-28T06:45:36.871Z,242.00
2023-03-28T06:46:36.791Z,242.36
2023-03-28T06:47:36.781Z,240.85
2023-03-28T06:48:37.389Z,242.41
2023-03-28T06:49:36.733Z,242.11
2023-03-28T06:50:36.727Z,240.26
2023-03-28T06:51:36.783Z,239.53
2023-03-28T06:52:36.836Z,239.92
2023-03-28T06:53:36.900Z,239.71
2023-03-28T06:54:36.948Z,239.28
2023-03-28T06:55:36.983Z,237.76
2023-03-28T06:56:37.052Z,238.34
2023-03-28T06:57:37.104Z,236.33
2023-03-28T06:58:37.142Z,237.16
2023-03-28T06:59:37.206Z,235.60
2023-03-28T07:00:37.254Z,236.32
2023-03-28T07:01:37.364Z,233.27
2023-03-28T07:02:37.437Z,235.49
2023-03-28T07:03:37.506Z,232.91
2023-03-28T07:04:37.488Z,232.81
2023-03-28T07:05:37.532Z,231.76
2023-03-28T07:06:37.607Z,232.34
2023-03-28T07:07:37.654Z,230.66
2023-03-28T07:08:37.702Z,228.78
2023-03-28T07:09:37.821Z,229.57
2023-03-28T07:10:37.807Z,229.08
2023-03-28T07:11:38.065Z,228.97
2023-03-28T07:12:37.925Z,227.63
2023-03-28T07:13:38.053Z,227.99
2023-03-28T07:14:38.021Z,226.95
2023-03-28T07:15:38.086Z,225.91
2023-03-28T07:16:38.175Z,226.33
2023-03-28T07:17:38.195Z,225.72
2023-03-28T07:18:38.260Z,224.98
2023-03-28T07:19:38.311Z,224.78
2023-03-28T07:20:38.372Z,224.40
2023-03-28T07:21:38.450Z,223.50
2023-03-28T07:22:38.501Z,223.79
2023-03-28T07:23:38.549Z,224.08
2023-03-28T07:24:38.597Z,222.82
2023-03-28T07:25:38.642Z,223.68
2023-03-28T07:26:38.688Z,225.01
2023-03-28T07:27:38.729Z,224.22
2023-03-28T07:28:38.773Z,226.69
2023-03-28T07:29:38.805Z,226.80
2023-03-28T07:30:38.829Z,228.62
2023-03-28T07:31:39.013Z,231.02
2023-03-28T07:32:50.404Z,232.02
2023-03-28T07:33:39.926Z,232.14
2023-03-28T07:34:38.857Z,232.57
2023-03-28T07:35:38.898Z,233.39
2023-03-28T07:36:38.839Z,235.06
2023-03-28T07:37:38.836Z,238.67
2023-03-28T07:38:38.839Z,240.99
2023-03-28T07:39:38.813Z,240.62
2023-03-28T07:40:38.812Z,243.08
2023-03-28T07:41:38.795Z,244.82
2023-03-28T07:42:38.786Z,246.08
2023-03-28T07:43:38.815Z,248.31
2023-03-28T07:44:41.039Z,249.46
2023-03-28T07:45:38.782Z,247.82
2023-03-28T07:46:38.745Z,249.57
2023-03-28T07:47:38.764Z,248.14
2023-03-28T07:48:38.724Z,249.53
2023-03-28T07:49:38.717Z,250.00
2023-03-28T07:50:38.706Z,249.30
2023-03-28T07:51:38.689Z,249.28
2023-03-28T07:52:38.767Z,249.53
2023-03-28T07:53:38.693Z,249.78
2023-03-28T07:54:39.652Z,250.03
2023-03-28T07:56:40.902Z,252.89
2023-03-28T07:57:38.632Z,250.24
2023-03-28T07:58:38.677Z,251.51
2023-03-28T07:59:38.709Z,254.47
2023-03-28T08:00:38.742Z,258.67
2023-03-28T08:01:38.841Z,265.45
2023-03-28T08:02:39.466Z,251.97
2023-03-28T08:03:38.942Z,249.59
2023-03-28T08:04:39.417Z,212.02
2023-03-28T08:05:38.862Z,169.05
2023-03-28T08:06:38.867Z,134.36
2023-03-28T08:07:38.870Z,113.63
2023-03-28T08:08:38.893Z,86.67
2023-03-28T08:09:38.935Z,66.77
2023-03-28T08:10:38.989Z,56.23
2023-03-28T08:11:39.124Z,71.01
2023-03-28T08:12:39.112Z,88.09
2023-03-28T08:13:39.175Z,120.72
2023-03-28T08:14:39.192Z,110.06
2023-03-28T08:15:39.370Z,111.93
2023-03-28T08:16:39.257Z,112.05
2023-03-28T08:17:39.330Z,113.34
2023-03-28T08:18:39.290Z,120.71
2023-03-28T08:19:39.322Z,127.30
2023-03-28T08:20:39.326Z,132.75
2023-03-28T08:21:39.347Z,137.70
2023-03-28T08:22:39.929Z,93.33
2023-03-28T08:23:39.928Z,76.84
2023-03-28T08:24:39.446Z,64.48
2023-03-28T08:25:40.413Z,63.29
2023-03-28T08:26:39.560Z,71.45
2023-03-28T08:27:39.611Z,80.71
2023-03-28T08:28:39.647Z,87.44
2023-03-28T08:29:40.415Z,92.01
2023-03-28T08:30:39.699Z,96.22
2023-03-28T08:31:39.750Z,100.43
2023-03-28T08:32:39.767Z,105.75
2023-03-28T08:33:40.422Z,109.06
2023-03-28T08:34:39.774Z,110.41
2023-03-28T08:35:39.851Z,115.44
2023-03-28T08:36:39.770Z,119.47
2023-03-28T08:37:39.815Z,122.14
2023-03-28T08:38:39.760Z,126.38
2023-03-28T08:39:39.830Z,129.28
2023-03-28T08:40:40.340Z,132.96
2023-03-28T08:41:39.769Z,135.62
2023-03-28T08:42:39.762Z,138.72
2023-03-28T08:43:39.929Z,147.00
2023-03-28T08:44:39.745Z,148.68
2023-03-28T08:45:39.750Z,153.20
2023-03-28T08:46:39.820Z,155.44
2023-03-28T08:47:39.841Z,158.51
2023-03-28T08:48:39.848Z,165.54
2023-03-28T08:49:39.845Z,172.66
2023-03-28T08:50:40.431Z,176.70
2023-03-28T08:51:39.908Z,182.39
2023-03-28T08:52:39.947Z,189.50
2023-03-28T08:53:39.996Z,197.26
2023-03-28T08:54:40.003Z,202.43
2023-03-28T08:55:40.929Z,207.20
2023-03-28T08:56:40.960Z,209.06
2023-03-28T08:57:40.927Z,208.73
2023-03-28T08:58:40.227Z,210.58
2023-03-28T08:59:40.233Z,211.09
2023-03-28T09:00:40.325Z,210.72
2023-03-28T09:01:40.384Z,211.52
2023-03-28T09:02:40.375Z,211.89
2023-03-28T09:03:40.523Z,211.91
2023-03-28T09:04:40.382Z,211.30
2023-03-28T09:05:40.448Z,212.38
2023-03-28T09:06:40.416Z,212.38
2023-03-28T09:07:40.932Z,212.65
2023-03-28T09:08:40.427Z,213.51
2023-03-28T09:09:40.936Z,212.80
2023-03-28T09:10:40.422Z,213.53
2023-03-28T09:11:40.473Z,213.19
2023-03-28T09:12:40.413Z,211.13
2023-03-28T09:13:40.415Z,211.58
2023-03-28T09:14:40.409Z,209.86
2023-03-28T09:15:40.417Z,211.39
2023-03-28T09:16:40.398Z,209.30
2023-03-28T09:17:40.451Z,208.69
2023-03-28T09:18:40.389Z,209.12
2023-03-28T09:19:47.789Z,206.50
2023-03-28T09:20:43.206Z,206.62
2023-03-28T09:21:40.371Z,206.71
2023-03-28T09:22:40.345Z,207.23
2023-03-28T09:23:40.393Z,207.51
2023-03-28T09:24:40.349Z,208.09
2023-03-28T09:25:40.293Z,205.86
2023-03-28T09:26:40.278Z,206.82
2023-03-28T09:27:40.351Z,205.75
2023-03-28T09:28:40.264Z,206.82
2023-03-28T09:29:40.258Z,206.58
2023-03-28T09:30:40.224Z,206.36
2023-03-28T09:31:40.270Z,205.05
2023-03-28T09:32:40.257Z,204.27
2023-03-28T09:33:40.191Z,205.63
2023-03-28T09:34:40.285Z,204.60
2023-03-28T09:35:40.199Z,205.83
2023-03-28T09:36:48.408Z,205.91
2023-03-28T09:37:41.137Z,206.08
2023-03-28T09:38:40.146Z,206.46
2023-03-28T09:39:40.117Z,207.37
2023-03-28T09:40:40.101Z,208.22
2023-03-28T09:41:40.183Z,209.50
2023-03-28T09:42:40.085Z,212.38
2023-03-28T09:43:40.088Z,212.79
2023-03-28T09:44:52.915Z,214.96
2023-03-28T09:45:41.090Z,215.07
2023-03-28T09:46:40.035Z,215.51
2023-03-28T09:47:40.070Z,216.80
2023-03-28T09:48:40.045Z,219.09
2023-03-28T09:49:39.976Z,226.18
2023-03-28T09:50:39.955Z,230.52
2023-03-28T09:51:39.978Z,231.84
2023-03-28T09:52:39.962Z,234.96
2023-03-28T09:53:39.987Z,237.31
2023-03-28T09:54:40.026Z,238.30
2023-03-28T09:55:40.047Z,240.54
2023-03-28T09:56:40.134Z,242.21
2023-03-28T09:57:40.129Z,245.57
2023-03-28T09:58:40.158Z,246.59
2023-03-28T09:59:40.220Z,247.92
2023-03-28T10:00:40.233Z,249.38
2023-03-28T10:01:40.327Z,248.23
2023-03-28T10:02:40.318Z,249.86
2023-03-28T10:03:40.338Z,248.74
2023-03-28T10:04:40.442Z,249.18
2023-03-28T10:05:40.398Z,259.87
2023-03-28T10:06:40.423Z,257.85
2023-03-28T10:07:40.440Z,271.62
2023-03-28T10:08:40.458Z,266.91
2023-03-28T10:09:40.480Z,256.98
2023-03-28T10:10:40.499Z,248.73
2023-03-28T10:11:40.511Z,245.70
2023-03-28T10:12:40.547Z,237.45
2023-03-28T10:13:40.625Z,215.87
2023-03-28T10:14:40.586Z,205.57
2023-03-28T10:15:40.657Z,192.51
2023-03-28T10:16:41.658Z,178.86
2023-03-28T10:17:40.721Z,163.79
2023-03-28T10:18:41.378Z,142.48
2023-03-28T10:19:40.806Z,119.88
2023-03-28T10:20:40.867Z,107.93
2023-03-28T10:21:41.050Z,105.66
2023-03-28T10:22:40.960Z,105.11
2023-03-28T10:23:41.012Z,85.02
2023-03-28T10:24:41.095Z,77.74
2023-03-28T10:25:41.137Z,79.32
2023-03-28T10:26:41.157Z,56.91
2023-03-28T10:27:41.243Z,35.64
2023-03-28T10:28:41.168Z,30.04
2023-03-28T10:29:41.258Z,29.67
2023-03-28T10:30:41.281Z,23.64
2023-03-28T10:31:41.288Z,25.00
2023-03-28T10:32:41.204Z,28.68
2023-03-28T10:33:41.197Z,23.22
2023-03-28T10:34:41.181Z,22.66
2023-03-28T10:35:41.191Z,23.56
2023-03-28T10:36:41.199Z,23.93
2023-03-28T10:37:41.197Z,28.42
2023-03-28T10:38:41.204Z,31.27
2023-03-28T10:39:41.202Z,24.86
2023-03-28T10:40:41.298Z,26.28
2023-03-28T10:41:41.257Z,30.03
2023-03-28T10:42:41.267Z,31.10
2023-03-28T10:43:41.295Z,31.98
2023-03-28T10:44:41.330Z,34.48
2023-03-28T10:45:41.380Z,36.90
2023-03-28T10:46:41.527Z,39.84
2023-03-28T10:47:41.608Z,43.10
2023-03-28T10:48:41.546Z,48.69
2023-03-28T10:49:41.600Z,53.71
2023-03-28T10:50:41.650Z,60.26
2023-03-28T10:51:41.700Z,68.77
2023-03-28T10:52:41.741Z,75.63
2023-03-28T10:53:41.764Z,83.43
2023-03-28T10:54:42.390Z,88.56
2023-03-28T10:55:41.801Z,92.68
2023-03-28T10:56:41.887Z,95.72
2023-03-28T10:57:41.828Z,98.18
2023-03-28T10:58:41.837Z,97.08
2023-03-28T10:59:41.852Z,97.11
2023-03-28T11:00:41.876Z,98.74
2023-03-28T11:01:41.992Z,100.20
2023-03-28T11:02:41.998Z,101.38
2023-03-28T11:03:42.026Z,102.53
2023-03-28T11:04:42.027Z,102.51
2023-03-28T11:05:42.025Z,103.15
2023-03-28T11:06:42.023Z,103.37
2023-03-28T11:07:42.048Z,103.79
2023-03-28T11:08:42.974Z,103.66
2023-03-28T11:09:42.125Z,103.90
2023-03-28T11:10:42.158Z,104.62
2023-03-28T11:11:43.129Z,104.70
2023-03-28T11:12:54.237Z,104.77
2023-03-28T11:13:43.104Z,104.68
2023-03-28T11:14:42.081Z,104.86
2023-03-28T11:15:42.064Z,105.12
2023-03-28T11:16:42.292Z,105.88
2023-03-28T11:17:42.087Z,106.16
2023-03-28T11:18:42.044Z,106.77
2023-03-28T11:19:42.014Z,106.95
2023-03-28T11:20:41.998Z,106.40
2023-03-28T11:21:41.981Z,106.91
2023-03-28T11:22:47.554Z,106.80
2023-03-28T11:23:42.960Z,106.85
2023-03-28T11:24:42.003Z,106.98
2023-03-28T11:25:42.024Z,107.07
2023-03-28T11:26:42.071Z,106.91
2023-03-28T11:27:42.085Z,106.90
2023-03-28T11:28:43.553Z,105.62
2023-03-28T11:29:44.036Z,106.65
2023-03-28T11:30:42.228Z,106.68
2023-03-28T11:31:42.295Z,106.58
2023-03-28T11:32:42.385Z,105.57
2023-03-28T11:33:42.326Z,106.63
2023-03-28T11:34:42.919Z,106.89
2023-03-28T11:35:42.423Z,106.23
2023-03-28T11:36:42.386Z,105.29
2023-03-28T11:37:42.412Z,105.57
2023-03-28T11:38:42.441Z,105.51
2023-03-28T11:39:42.463Z,106.53
2023-03-28T11:40:42.477Z,105.41
2023-03-28T11:41:42.503Z,106.04
2023-03-28T11:42:42.504Z,105.60
2023-03-28T11:43:42.521Z,105.66
2023-03-28T11:44:42.572Z,104.00
2023-03-28T11:45:51.074Z,105.44
2023-03-28T11:46:43.611Z,105.49
2023-03-28T11:47:42.590Z,105.59
2023-03-28T11:48:42.517Z,105.51
2023-03-28T11:49:42.500Z,105.85
2023-03-28T11:50:42.483Z,104.65
2023-03-28T11:51:42.456Z,104.91
2023-03-28T11:52:42.434Z,103.84
2023-03-28T11:53:42.423Z,104.29
2023-03-28T11:54:42.449Z,104.08
2023-03-28T11:55:42.388Z,104.40
2023-03-28T11:56:42.427Z,104.32
2023-03-28T11:57:42.342Z,104.43
2023-03-28T11:58:42.333Z,104.17
2023-03-28T11:59:42.307Z,103.27
2023-03-28T12:00:42.704Z,104.51
2023-03-28T12:01:42.280Z,104.59
2023-03-28T12:02:42.433Z,104.32
2023-03-28T12:03:42.492Z,103.32
2023-03-28T12:04:42.190Z,103.95
2023-03-28T12:05:42.174Z,103.75
2023-03-28T12:06:52.335Z,103.04
2023-03-28T12:07:43.124Z,103.09
2023-03-28T12:08:42.112Z,103.18
2023-03-28T12:09:42.095Z,103.14
2023-03-28T12:10:42.069Z,102.63
2023-03-28T12:11:42.045Z,102.93
2023-03-28T12:12:42.044Z,103.23
2023-03-28T12:13:46.011Z,103.64
2023-03-28T12:14:41.978Z,103.51
2023-03-28T12:15:41.950Z,103.23
2023-03-28T12:16:42.406Z,102.62
2023-03-28T12:17:41.969Z,102.47
2023-03-28T12:18:41.887Z,102.36
2023-03-28T12:19:41.911Z,101.16
2023-03-28T12:20:41.843Z,102.28
2023-03-28T12:21:41.858Z,102.10
2023-03-28T12:22:41.799Z,100.42
2023-03-28T12:23:41.789Z,101.00
2023-03-28T12:24:42.413Z,101.46
2023-03-28T12:25:41.753Z,100.29
2023-03-28T12:26:41.705Z,100.89
2023-03-28T12:27:41.688Z,101.61
2023-03-28T12:28:41.646Z,100.19
2023-03-28T12:29:41.728Z,99.84
2023-03-28T12:30:41.627Z,99.63
2023-03-28T12:31:41.594Z,99.85
2023-03-28T12:32:41.621Z,99.60
2023-03-28T12:33:41.541Z,99.28
2023-03-28T12:34:41.508Z,100.07
2023-03-28T12:35:41.488Z,100.12
2023-03-28T12:36:41.457Z,99.76
2023-03-28T12:37:41.429Z,99.80
2023-03-28T12:38:41.390Z,98.71
2023-03-28T12:39:41.368Z,98.19
2023-03-28T12:40:41.417Z,98.16
2023-03-28T12:41:41.321Z,98.21